Time;durP1;ratioP1;P1;durP2;ratioP2;P2;SDS_P1;SDS_P2;PMS_P1;PMS_P2;Temp;Humidity;BMP_temperature;BMP_pressure;BME280_temperature;BME280_humidity;BME280_pressure;Samples;Min_cycle;Max_cycle;Signal;HPM_P1;HPM_P2
2022/02/27 00:00:18;;;;;;;;;;;;;;;;;;1047905;28;944;-43
2022/02/27 00:00:48;;;;;;;;;;;;;;;;;;1046666;28;1130;-41
2022/02/27 00:01:19;;;;;;;;;;;;;;;;;;1047825;28;889;-47
2022/02/27 00:01:49;;;;;;;;;;;;;;;;;;1047287;28;1109;-43
2022/02/27 00:02:20;;;;;;;;;;;;;;;;;;1047752;28;937;-42
2022/02/27 00:02:50;;;;;;;;;;;;;;;;;;1047312;28;1116;-43
2022/02/27 00:03:21;;;;;;;;;;;;;;;;;;1047698;28;798;-43
2022/02/27 00:03:52;;;;;;;;;;;;;;;;;;1047549;28;968;-44
2022/02/27 00:04:22;;;;;;;;;;;;;;;;;;1047502;28;1176;-45
2022/02/27 00:04:52;;;;;;;;;;;;;;;;;;1047600;28;829;-44
2022/02/27 00:05:23;;;;;;;;;;;;;;;;;;1047570;28;1030;-43
2022/02/27 00:05:53;;;;;;;;;;;;;;;;;;1047626;28;861;-46
2022/02/27 00:06:23;;;;;;;;;;;;;;;;;;1047438;28;1073;-46
2022/02/27 00:06:54;;;;;;;;;;;;;;;;;;1047671;28;798;-44
2022/02/27 00:07:25;;;;;;;;;;;;;;;;;;1047765;28;873;-43
2022/02/27 00:07:55;;;;;;;;;;;;;;;;;;1047126;28;1049;-44
2022/02/27 00:08:25;;;;;;;;;;;;;;;;;;1047061;28;873;-44
2022/02/27 00:08:57;;;;;;;;;;;;;;;;;;1047247;28;1914;-42
2022/02/27 00:09:29;;;;;;;;;;;;;;;;;;1047739;28;940;-43
2022/02/27 00:10:00;;;;;;;;;;;;;;;;;;1047282;28;1069;-44
2022/02/27 00:10:30;;;;;;;;;;;;;;;;;;1047825;28;1019;-46
2022/02/27 00:11:00;;;;;;;;;;;;;;;;;;1047301;28;1113;-46
2022/02/27 00:11:32;;;;;;;;;;;;;;;;;;1047729;28;774;-44
2022/02/27 00:12:04;;;;;;;;;;;;;;;;;;1047769;28;841;-46
2022/02/27 00:12:34;;;;;;;;;;;;;;;;;;1047334;28;1050;-45
2022/02/27 00:13:05;;;;;;;;;;;;;;;;;;1047742;28;886;-45
2022/02/27 00:13:35;;;;;;;;;;;;;;;;;;1047498;28;1022;-43
2022/02/27 00:14:05;;;;;;;;;;;;;;;;;;1047696;28;826;-47
2022/02/27 00:14:36;;;;;;;;;;;;;;;;;;1047378;28;1089;-43
2022/02/27 00:15:07;;;;;;;;;;;;;;;;;;1047756;28;881;-45
2022/02/27 00:15:37;;;;;;;;;;;;;;;;;;1047125;28;869;-43
2022/02/27 00:16:08;;;;;;;;;;;;;;;;;;1047188;28;986;-46
2022/02/27 00:16:38;;;;;;;;;;;;;;;;;;1047695;28;933;-44
2022/02/27 00:17:08;;;;;;;;;;;;;;;;;;1047327;28;1046;-44
2022/02/27 00:17:39;;;;;;;;;;;;;;;;;;1047446;28;1520;-45
2022/02/27 00:18:09;;;;;;;;;;;;;;;;;;1047123;28;950;-44
2022/02/27 00:18:39;;;;;;;;;;;;;;;;;;1047730;28;1049;-44
2022/02/27 00:19:09;;;;;;;;;;;;;;;;;;1047347;28;1257;-44
2022/02/27 00:19:40;;;;;;;;;;;;;;;;;;1047815;28;950;-43
2022/02/27 00:20:11;;;;;;;;;;;;;;;;;;1047786;28;991;-48
2022/02/27 00:20:44;;;;;;;;;;;;;;;;;;1047252;28;1092;-42
2022/02/27 00:21:14;;;;;;;;;;;;;;;;;;1047749;28;920;-43
2022/02/27 00:21:44;;;;;;;;;;;;;;;;;;1042847;28;1457;-46
2022/02/27 00:22:15;;;;;;;;;;;;;;;;;;1043256;28;847;-44
2022/02/27 00:22:46;;;;;;;;;;;;;;;;;;1042762;28;1101;-44
2022/02/27 00:23:16;;;;;;;;;;;;;;;;;;1042665;28;924;-45
2022/02/27 00:23:46;;;;;;;;;;;;;;;;;;1043310;28;882;-43
2022/02/27 00:24:17;;;;;;;;;;;;;;;;;;1046923;28;1149;-45
2022/02/27 00:24:47;;;;;;;;;;;;;;;;;;1047539;28;830;-44
2022/02/27 00:25:17;;;;;;;;;;;;;;;;;;1047449;28;1208;-44
2022/02/27 00:25:48;;;;;;;;;;;;;;;;;;1047596;28;948;-47
2022/02/27 00:26:19;;;;;;;;;;;;;;;;;;1047738;28;854;-43
2022/02/27 00:26:49;;;;;;;;;;;;;;;;;;1047685;28;838;-44
2022/02/27 00:27:20;;;;;;;;;;;;;;;;;;1047742;28;838;-46
2022/02/27 00:27:53;;;;;;;;;;;;;;;;;;1048354;28;897;-46
2022/02/27 00:28:25;;;;;;;;;;;;;;;;;;1048376;28;817;-47
2022/02/27 00:28:55;;;;;;;;;;;;;;;;;;1045467;28;1926;-46
2022/02/27 00:29:26;;;;;;;;;;;;;;;;;;1048340;28;1043;-44
2022/02/27 00:29:56;;;;;;;;;;;;;;;;;;1048118;28;841;-44
2022/02/27 00:30:27;;;;;;;;;;;;;;;;;;1047626;28;834;-46
2022/02/27 00:30:57;;;;;;;;;;;;;;;;;;1048528;28;936;-46
2022/02/27 00:31:28;;;;;;;;;;;;;;;;;;1048456;28;845;-44
2022/02/27 00:31:58;;;;;;;;;;;;;;;;;;1048652;28;821;-45
2022/02/27 00:32:29;;;;;;;;;;;;;;;;;;1047982;28;1241;-45
2022/02/27 00:33:00;;;;;;;;;;;;;;;;;;1048313;28;782;-45
2022/02/27 00:33:32;;;;;;;;;;;;;;;;;;1048187;28;822;-44
2022/02/27 00:34:03;;;;;;;;;;;;;;;;;;1044369;28;822;-48
2022/02/27 00:34:34;;;;;;;;;;;;;;;;;;1048244;28;833;-46
2022/02/27 00:35:06;;;;;;;;;;;;;;;;;;1043919;28;1196;-46
2022/02/27 00:35:37;;;;;;;;;;;;;;;;;;1044593;28;861;-44
2022/02/27 00:36:07;;;;;;;;;;;;;;;;;;1048105;28;912;-47
2022/02/27 00:36:37;;;;;;;;;;;;;;;;;;1045019;28;1080;-46
2022/02/27 00:37:08;;;;;;;;;;;;;;;;;;1048482;28;858;-48
2022/02/27 00:37:38;;;;;;;;;;;;;;;;;;1047858;28;778;-46
2022/02/27 00:38:09;;;;;;;;;;;;;;;;;;1048363;28;849;-44
2022/02/27 00:38:42;;;;;;;;;;;;;;;;;;1048631;28;853;-44
2022/02/27 00:39:14;;;;;;;;;;;;;;;;;;1048269;28;904;-43
2022/02/27 00:39:44;;;;;;;;;;;;;;;;;;1048542;28;854;-45
2022/02/27 00:40:15;;;;;;;;;;;;;;;;;;1048399;28;877;-46
2022/02/27 00:40:45;;;;;;;;;;;;;;;;;;1048586;28;856;-45
2022/02/27 00:41:16;;;;;;;;;;;;;;;;;;1048303;28;929;-45
2022/02/27 00:41:46;;;;;;;;;;;;;;;;;;1048401;28;830;-44
2022/02/27 00:42:16;;;;;;;;;;;;;;;;;;1043949;28;1229;-44
2022/02/27 00:42:47;;;;;;;;;;;;;;;;;;1044033;28;1156;-43
2022/02/27 00:43:18;;;;;;;;;;;;;;;;;;1039879;28;830;-45
2022/02/27 00:43:48;;;;;;;;;;;;;;;;;;1039853;28;968;-43
2022/02/27 00:44:19;;;;;;;;;;;;;;;;;;1035786;28;1559;-45
2022/02/27 00:44:49;;;;;;;;;;;;;;;;;;1039997;28;893;-46
2022/02/27 00:45:19;;;;;;;;;;;;;;;;;;1039202;28;1236;-46
2022/02/27 00:45:50;;;;;;;;;;;;;;;;;;1035540;28;1611;-48
2022/02/27 00:46:20;;;;;;;;;;;;;;;;;;1039896;28;799;-44
2022/02/27 00:46:51;;;;;;;;;;;;;;;;;;1039864;28;849;-44
2022/02/27 00:47:21;;;;;;;;;;;;;;;;;;1039865;28;826;-43
2022/02/27 00:47:51;;;;;;;;;;;;;;;;;;1043501;28;1343;-46
2022/02/27 00:48:22;;;;;;;;;;;;;;;;;;1044060;28;811;-45
2022/02/27 00:48:53;;;;;;;;;;;;;;;;;;1043940;28;910;-44
2022/02/27 00:49:23;;;;;;;;;;;;;;;;;;1048099;28;1968;-44
2022/02/27 00:49:55;;;;;;;;;;;;;;;;;;1048293;28;806;-44
2022/02/27 00:50:26;;;;;;;;;;;;;;;;;;1048539;28;806;-43
2022/02/27 00:50:57;;;;;;;;;;;;;;;;;;1043771;28;2255;-47
2022/02/27 00:51:27;;;;;;;;;;;;;;;;;;1043936;28;937;-46
2022/02/27 00:51:57;;;;;;;;;;;;;;;;;;1043971;28;922;-45
2022/02/27 00:52:28;;;;;;;;;;;;;;;;;;1043256;28;838;-44
2022/02/27 00:52:58;;;;;;;;;;;;;;;;;;1044076;28;894;-46
2022/02/27 00:53:30;;;;;;;;;;;;;;;;;;1048318;28;853;-45
2022/02/27 00:54:00;;;;;;;;;;;;;;;;;;1048444;28;739;-43
2022/02/27 00:54:31;;;;;;;;;;;;;;;;;;1043901;28;937;-45
2022/02/27 00:55:01;;;;;;;;;;;;;;;;;;1043923;28;933;-45
2022/02/27 00:55:32;;;;;;;;;;;;;;;;;;1043991;28;813;-45
2022/02/27 00:56:04;;;;;;;;;;;;;;;;;;1044177;28;1479;-45
2022/02/27 00:56:36;;;;;;;;;;;;;;;;;;1048114;28;890;-44
2022/02/27 00:57:06;;;;;;;;;;;;;;;;;;1043982;28;794;-44
2022/02/27 00:57:36;;;;;;;;;;;;;;;;;;1043786;28;810;-45
2022/02/27 00:58:07;;;;;;;;;;;;;;;;;;1043936;28;826;-44
2022/02/27 00:58:38;;;;;;;;;;;;;;;;;;1043970;28;1015;-45
2022/02/27 00:59:08;;;;;;;;;;;;;;;;;;1048280;28;814;-47
2022/02/27 00:59:38;;;;;;;;;;;;;;;;;;1048552;28;913;-44
2022/02/27 01:00:09;;;;;;;;;;;;;;;;;;1047610;28;834;-44
2022/02/27 01:00:39;;;;;;;;;;;;;;;;;;1048442;28;976;-45
2022/02/27 01:01:10;;;;;;;;;;;;;;;;;;1048345;28;818;-45
2022/02/27 01:01:40;;;;;;;;;;;;;;;;;;1043856;28;1117;-47
2022/02/27 01:02:11;;;;;;;;;;;;;;;;;;1043872;28;937;-46
2022/02/27 01:02:41;;;;;;;;;;;;;;;;;;1043954;28;829;-45
2022/02/27 01:03:11;;;;;;;;;;;;;;;;;;1043914;28;865;-46
2022/02/27 01:03:42;;;;;;;;;;;;;;;;;;1048424;28;921;-43
2022/02/27 01:04:12;;;;;;;;;;;;;;;;;;1043698;28;881;-44
2022/02/27 01:04:44;;;;;;;;;;;;;;;;;;1043960;28;818;-44
2022/02/27 01:05:14;;;;;;;;;;;;;;;;;;1043888;28;801;-43
2022/02/27 01:05:46;;;;;;;;;;;;;;;;;;1044479;28;845;-44
2022/02/27 01:06:16;;;;;;;;;;;;;;;;;;1048347;28;782;-44
2022/02/27 01:06:47;;;;;;;;;;;;;;;;;;1048301;28;763;-44
2022/02/27 01:07:18;;;;;;;;;;;;;;;;;;1043257;28;1393;-44
2022/02/27 01:07:48;;;;;;;;;;;;;;;;;;1043825;28;851;-44
2022/02/27 01:08:18;;;;;;;;;;;;;;;;;;1043798;28;910;-43
2022/02/27 01:08:49;;;;;;;;;;;;;;;;;;1043858;28;857;-43
2022/02/27 01:09:20;;;;;;;;;;;;;;;;;;1048267;28;1967;-43
2022/02/27 01:09:50;;;;;;;;;;;;;;;;;;1048396;28;833;-47
2022/02/27 01:10:21;;;;;;;;;;;;;;;;;;1043857;28;1203;-43
2022/02/27 01:10:51;;;;;;;;;;;;;;;;;;1043828;28;893;-44
2022/02/27 01:11:21;;;;;;;;;;;;;;;;;;1043813;28;1024;-44
2022/02/27 01:11:52;;;;;;;;;;;;;;;;;;1039715;28;1176;-48
2022/02/27 01:12:22;;;;;;;;;;;;;;;;;;1043870;28;1494;-42
2022/02/27 01:12:52;;;;;;;;;;;;;;;;;;1043893;28;1032;-43
2022/02/27 01:13:23;;;;;;;;;;;;;;;;;;1043775;28;912;-44
2022/02/27 01:13:54;;;;;;;;;;;;;;;;;;1043883;28;1152;-45
2022/02/27 01:14:24;;;;;;;;;;;;;;;;;;1043973;28;842;-43
2022/02/27 01:14:55;;;;;;;;;;;;;;;;;;1043090;28;829;-43
2022/02/27 01:15:25;;;;;;;;;;;;;;;;;;1039870;28;1272;-43
2022/02/27 01:15:56;;;;;;;;;;;;;;;;;;1043709;28;1240;-43
2022/02/27 01:16:27;;;;;;;;;;;;;;;;;;1039644;28;1200;-44
2022/02/27 01:17:01;;;;;;;;;;;;;;;;;;1035650;28;1321;-47
2022/02/27 01:17:31;;;;;;;;;;;;;;;;;;1035954;28;850;-44
2022/02/27 01:18:01;;;;;;;;;;;;;;;;;;1036301;28;1125;-44
2022/02/27 01:18:33;;;;;;;;;;;;;;;;;;1040009;28;758;-44
2022/02/27 01:19:05;;;;;;;;;;;;;;;;;;1043857;28;831;-43
2022/02/27 01:19:38;;;;;;;;;;;;;;;;;;1040480;28;1460;-44
2022/02/27 01:20:09;;;;;;;;;;;;;;;;;;1043672;28;1256;-47
2022/02/27 01:20:39;;;;;;;;;;;;;;;;;;1044014;28;858;-44
2022/02/27 01:21:15;;;;;;;;;;;;;;;;;;1044368;28;1164;-44
2022/02/27 01:21:45;;;;;;;;;;;;;;;;;;1047962;28;925;-45
2022/02/27 01:22:16;;;;;;;;;;;;;;;;;;1047170;28;1309;-45
2022/02/27 01:22:46;;;;;;;;;;;;;;;;;;1048039;28;976;-44
2022/02/27 01:23:17;;;;;;;;;;;;;;;;;;1043807;28;1155;-44
2022/02/27 01:23:48;;;;;;;;;;;;;;;;;;1043754;28;736;-46
2022/02/27 01:24:19;;;;;;;;;;;;;;;;;;1043746;28;1132;-45
2022/02/27 01:24:50;;;;;;;;;;;;;;;;;;1044156;28;1391;-46
2022/02/27 01:25:21;;;;;;;;;;;;;;;;;;1047607;28;814;-44
2022/02/27 01:25:51;;;;;;;;;;;;;;;;;;1044181;28;767;-44
2022/02/27 01:26:22;;;;;;;;;;;;;;;;;;1048189;28;928;-44
2022/02/27 01:26:52;;;;;;;;;;;;;;;;;;1048309;28;850;-44
2022/02/27 01:27:22;;;;;;;;;;;;;;;;;;1043881;28;933;-45
2022/02/27 01:27:53;;;;;;;;;;;;;;;;;;1043549;28;775;-44
2022/02/27 01:28:23;;;;;;;;;;;;;;;;;;1043847;28;952;-44
2022/02/27 01:28:54;;;;;;;;;;;;;;;;;;1043865;28;1204;-46
2022/02/27 01:29:24;;;;;;;;;;;;;;;;;;1043387;28;1973;-43
2022/02/27 01:29:55;;;;;;;;;;;;;;;;;;1043499;28;901;-45
2022/02/27 01:30:25;;;;;;;;;;;;;;;;;;1043681;28;1211;-45
2022/02/27 01:30:56;;;;;;;;;;;;;;;;;;1043849;28;1290;-46
2022/02/27 01:31:26;;;;;;;;;;;;;;;;;;1043720;28;794;-44
2022/02/27 01:31:57;;;;;;;;;;;;;;;;;;1043828;28;783;-45
2022/02/27 01:32:27;;;;;;;;;;;;;;;;;;1039643;28;1184;-44
2022/02/27 01:32:59;;;;;;;;;;;;;;;;;;1039939;28;845;-46
2022/02/27 01:33:29;;;;;;;;;;;;;;;;;;1043673;28;846;-46
2022/02/27 01:33:59;;;;;;;;;;;;;;;;;;1044201;28;881;-45
2022/02/27 01:34:30;;;;;;;;;;;;;;;;;;1048060;28;850;-44
2022/02/27 01:35:00;;;;;;;;;;;;;;;;;;1048360;28;1713;-45
2022/02/27 01:35:30;;;;;;;;;;;;;;;;;;1048175;28;935;-47
2022/02/27 01:36:01;;;;;;;;;;;;;;;;;;1048291;28;878;-44
2022/02/27 01:36:33;;;;;;;;;;;;;;;;;;1048102;28;1018;-46
2022/02/27 01:37:03;;;;;;;;;;;;;;;;;;1043162;28;1160;-44
2022/02/27 01:37:34;;;;;;;;;;;;;;;;;;1043500;28;996;-44
2022/02/27 01:38:05;;;;;;;;;;;;;;;;;;1043920;28;782;-43
2022/02/27 01:38:35;;;;;;;;;;;;;;;;;;1043299;28;795;-44
2022/02/27 01:39:06;;;;;;;;;;;;;;;;;;1043892;28;1144;-48
2022/02/27 01:39:36;;;;;;;;;;;;;;;;;;1043618;28;1028;-46
2022/02/27 01:40:07;;;;;;;;;;;;;;;;;;1043783;28;917;-45
2022/02/27 01:40:38;;;;;;;;;;;;;;;;;;1039521;28;862;-46
2022/02/27 01:41:08;;;;;;;;;;;;;;;;;;1043818;28;826;-46
2022/02/27 01:41:38;;;;;;;;;;;;;;;;;;1043807;28;854;-45
2022/02/27 01:42:13;;;;;;;;;;;;;;;;;;1043854;28;965;-45
2022/02/27 01:42:44;;;;;;;;;;;;;;;;;;1043747;28;820;-45
2022/02/27 01:43:14;;;;;;;;;;;;;;;;;;1043649;28;805;-46
2022/02/27 01:43:45;;;;;;;;;;;;;;;;;;1043769;28;944;-47
2022/02/27 01:44:15;;;;;;;;;;;;;;;;;;1043289;28;718;-45
2022/02/27 01:44:48;;;;;;;;;;;;;;;;;;1044157;28;800;-44
2022/02/27 01:45:19;;;;;;;;;;;;;;;;;;1048052;28;1386;-44
2022/02/27 01:45:49;;;;;;;;;;;;;;;;;;1048347;28;883;-46
2022/02/27 01:46:20;;;;;;;;;;;;;;;;;;1043613;28;2237;-47
2022/02/27 01:47:01;;;;;;;;;;;;;;;;;;1043626;28;829;-44
2022/02/27 01:47:32;;;;;;;;;;;;;;;;;;1043580;28;976;-46
2022/02/27 01:48:02;;;;;;;;;;;;;;;;;;1041535;28;1370;-46
2022/02/27 01:48:32;;;;;;;;;;;;;;;;;;1039593;28;1224;-45
2022/02/27 01:49:03;;;;;;;;;;;;;;;;;;1039459;28;1918;-45
2022/02/27 01:49:34;;;;;;;;;;;;;;;;;;1039616;28;905;-43
2022/02/27 01:50:08;;;;;;;;;;;;;;;;;;1036014;28;1377;-46
2022/02/27 01:50:38;;;;;;;;;;;;;;;;;;1039657;28;849;-47
2022/02/27 01:51:10;;;;;;;;;;;;;;;;;;1039600;28;834;-43
2022/02/27 01:51:42;;;;;;;;;;;;;;;;;;1038904;28;885;-42
2022/02/27 01:52:15;;;;;;;;;;;;;;;;;;1039577;28;1438;-44
2022/02/27 01:52:45;;;;;;;;;;;;;;;;;;1039590;28;766;-46
2022/02/27 01:53:16;;;;;;;;;;;;;;;;;;1039658;28;897;-45
2022/02/27 01:53:47;;;;;;;;;;;;;;;;;;1039608;28;1179;-44
2022/02/27 01:54:20;;;;;;;;;;;;;;;;;;1043671;28;874;-44
2022/02/27 01:54:51;;;;;;;;;;;;;;;;;;1043847;28;778;-47
2022/02/27 01:55:23;;;;;;;;;;;;;;;;;;1043125;28;841;-43
2022/02/27 01:55:54;;;;;;;;;;;;;;;;;;1039772;28;1180;-45
2022/02/27 01:56:24;;;;;;;;;;;;;;;;;;1039977;28;743;-45
2022/02/27 01:56:54;;;;;;;;;;;;;;;;;;1043547;28;865;-42
2022/02/27 01:57:25;;;;;;;;;;;;;;;;;;1039501;28;1389;-43
2022/02/27 01:57:56;;;;;;;;;;;;;;;;;;1035402;28;1180;-45
2022/02/27 01:58:27;;;;;;;;;;;;;;;;;;1031276;28;1189;-45
2022/02/27 01:58:57;;;;;;;;;;;;;;;;;;1031715;28;1699;-45
2022/02/27 01:59:28;;;;;;;;;;;;;;;;;;1030818;28;1392;-44
2022/02/27 01:59:58;;;;;;;;;;;;;;;;;;1035639;28;825;-43
2022/02/27 02:00:28;;;;;;;;;;;;;;;;;;1039718;28;794;-44
2022/02/27 02:00:59;;;;;;;;;;;;;;;;;;1039559;28;791;-48
2022/02/27 02:01:30;;;;;;;;;;;;;;;;;;1039969;28;778;-43
2022/02/27 02:02:03;;;;;;;;;;;;;;;;;;1039400;28;1172;-44
2022/02/27 02:02:34;;;;;;;;;;;;;;;;;;1035394;28;1216;-42
2022/02/27 02:03:05;;;;;;;;;;;;;;;;;;1031492;28;1083;-47
2022/02/27 02:03:36;;;;;;;;;;;;;;;;;;1027815;28;1234;-42
2022/02/27 02:04:08;;;;;;;;;;;;;;;;;;1027626;28;1285;-45
2022/02/27 02:04:40;;;;;;;;;;;;;;;;;;1031658;28;833;-44
2022/02/27 02:05:13;;;;;;;;;;;;;;;;;;1032170;28;1164;-43
2022/02/27 02:05:43;;;;;;;;;;;;;;;;;;1031916;28;1359;-43
2022/02/27 02:06:14;;;;;;;;;;;;;;;;;;1031334;28;1378;-46
2022/02/27 02:06:44;;;;;;;;;;;;;;;;;;1026766;28;1265;-44
2022/02/27 02:07:15;;;;;;;;;;;;;;;;;;1031654;28;1067;-43
2022/02/27 02:07:46;;;;;;;;;;;;;;;;;;1031114;28;1177;-46
2022/02/27 02:08:17;;;;;;;;;;;;;;;;;;1031812;28;1458;-42
2022/02/27 02:08:48;;;;;;;;;;;;;;;;;;1034971;28;1301;-46
2022/02/27 02:09:19;;;;;;;;;;;;;;;;;;1027643;28;1984;-43
2022/02/27 02:09:54;;;;;;;;;;;;;;;;;;1032123;28;799;-44
2022/02/27 02:10:25;;;;;;;;;;;;;;;;;;1036247;28;802;-44
2022/02/27 02:11:00;;;;;;;;;;;;;;;;;;1039679;28;838;-44
2022/02/27 02:11:31;;;;;;;;;;;;;;;;;;1039487;28;1324;-43
2022/02/27 02:12:02;;;;;;;;;;;;;;;;;;1035312;28;1101;-46
2022/02/27 02:12:34;;;;;;;;;;;;;;;;;;1031404;28;1173;-44
2022/02/27 02:13:06;;;;;;;;;;;;;;;;;;1027741;28;811;-44
2022/02/27 02:13:40;;;;;;;;;;;;;;;;;;1032099;28;815;-45
2022/02/27 02:14:12;;;;;;;;;;;;;;;;;;1035663;28;830;-44
2022/02/27 02:14:42;;;;;;;;;;;;;;;;;;1035998;28;1180;-44
2022/02/27 02:15:12;;;;;;;;;;;;;;;;;;1035497;28;1220;-43
2022/02/27 02:15:43;;;;;;;;;;;;;;;;;;1035352;28;873;-44
2022/02/27 02:16:13;;;;;;;;;;;;;;;;;;1031353;28;1289;-48
2022/02/27 02:16:45;;;;;;;;;;;;;;;;;;1031314;28;1381;-45
2022/02/27 02:17:16;;;;;;;;;;;;;;;;;;1039477;28;1174;-43
2022/02/27 02:17:47;;;;;;;;;;;;;;;;;;1039400;28;881;-43
2022/02/27 02:18:17;;;;;;;;;;;;;;;;;;1035750;28;1263;-43
2022/02/27 02:18:47;;;;;;;;;;;;;;;;;;1035242;28;1137;-44
2022/02/27 02:19:19;;;;;;;;;;;;;;;;;;1035557;28;862;-43
2022/02/27 02:19:51;;;;;;;;;;;;;;;;;;1031573;28;1244;-44
2022/02/27 02:20:21;;;;;;;;;;;;;;;;;;1031725;28;1276;-45
2022/02/27 02:21:02;;;;;;;;;;;;;;;;;;1035334;28;809;-46
2022/02/27 02:21:39;;;;;;;;;;;;;;;;;;1036354;28;771;-43
2022/02/27 02:22:11;;;;;;;;;;;;;;;;;;1037773;28;1148;-44
2022/02/27 02:22:43;;;;;;;;;;;;;;;;;;1035156;28;1236;-44
2022/02/27 02:23:13;;;;;;;;;;;;;;;;;;1031383;28;1182;-44
2022/02/27 02:23:44;;;;;;;;;;;;;;;;;;1031696;28;1024;-44
2022/02/27 02:24:20;;;;;;;;;;;;;;;;;;1032192;28;1478;-44
2022/02/27 02:24:51;;;;;;;;;;;;;;;;;;1032184;28;1180;-46
2022/02/27 02:25:21;;;;;;;;;;;;;;;;;;1035267;28;965;-46
2022/02/27 02:25:52;;;;;;;;;;;;;;;;;;1031467;28;1434;-45
2022/02/27 02:26:23;;;;;;;;;;;;;;;;;;1035394;28;854;-45
2022/02/27 02:26:54;;;;;;;;;;;;;;;;;;1035229;28;1396;-43
2022/02/27 02:27:25;;;;;;;;;;;;;;;;;;1035701;28;1219;-46
2022/02/27 02:27:57;;;;;;;;;;;;;;;;;;1039359;28;1122;-44
2022/02/27 02:28:28;;;;;;;;;;;;;;;;;;1038961;28;1275;-44
2022/02/27 02:28:59;;;;;;;;;;;;;;;;;;1034345;28;1915;-43
2022/02/27 02:29:29;;;;;;;;;;;;;;;;;;1031403;28;1196;-46
2022/02/27 02:30:00;;;;;;;;;;;;;;;;;;1031460;28;1412;-44
2022/02/27 02:30:32;;;;;;;;;;;;;;;;;;1035363;28;1488;-43
2022/02/27 02:31:02;;;;;;;;;;;;;;;;;;1035673;28;881;-44
2022/02/27 02:31:34;;;;;;;;;;;;;;;;;;1035569;28;1260;-44
2022/02/27 02:32:05;;;;;;;;;;;;;;;;;;1035231;28;1192;-44
2022/02/27 02:32:45;;;;;;;;;;;;;;;;;;1035420;28;1207;-45
2022/02/27 02:33:15;;;;;;;;;;;;;;;;;;1036914;28;882;-45
2022/02/27 02:33:46;;;;;;;;;;;;;;;;;;1036654;28;1311;-46
2022/02/27 02:34:19;;;;;;;;;;;;;;;;;;1039582;28;873;-46
2022/02/27 02:34:49;;;;;;;;;;;;;;;;;;1035211;28;1165;-45
2022/02/27 02:35:20;;;;;;;;;;;;;;;;;;1035584;28;1008;-46
2022/02/27 02:35:50;;;;;;;;;;;;;;;;;;1035245;28;1152;-44
2022/02/27 02:36:21;;;;;;;;;;;;;;;;;;1034655;28;1288;-44
2022/02/27 02:36:52;;;;;;;;;;;;;;;;;;1035447;28;1253;-44
2022/02/27 02:37:22;;;;;;;;;;;;;;;;;;1035211;28;1153;-45
2022/02/27 02:37:53;;;;;;;;;;;;;;;;;;1039241;28;826;-46
2022/02/27 02:38:24;;;;;;;;;;;;;;;;;;1035483;28;767;-46
2022/02/27 02:38:55;;;;;;;;;;;;;;;;;;1039646;28;1164;-43
2022/02/27 02:39:26;;;;;;;;;;;;;;;;;;1043540;28;849;-47
2022/02/27 02:39:57;;;;;;;;;;;;;;;;;;1039338;28;1263;-44
2022/02/27 02:40:27;;;;;;;;;;;;;;;;;;1035331;28;1173;-43
2022/02/27 02:40:58;;;;;;;;;;;;;;;;;;1035222;28;1939;-46
2022/02/27 02:41:29;;;;;;;;;;;;;;;;;;1035406;28;1596;-44
2022/02/27 02:42:01;;;;;;;;;;;;;;;;;;1035730;28;1071;-48
2022/02/27 02:42:39;;;;;;;;;;;;;;;;;;1035298;28;1503;-45
2022/02/27 02:43:13;;;;;;;;;;;;;;;;;;1035411;28;1387;-45
2022/02/27 02:43:45;;;;;;;;;;;;;;;;;;1031919;28;1086;-43
2022/02/27 02:44:16;;;;;;;;;;;;;;;;;;1031150;28;1355;-43
2022/02/27 02:44:46;;;;;;;;;;;;;;;;;;1031961;28;994;-44
2022/02/27 02:45:17;;;;;;;;;;;;;;;;;;1035502;28;1185;-45
2022/02/27 02:45:48;;;;;;;;;;;;;;;;;;1039373;28;877;-44
2022/02/27 02:46:18;;;;;;;;;;;;;;;;;;1039327;28;1239;-43
2022/02/27 02:46:49;;;;;;;;;;;;;;;;;;1039434;28;1089;-43
2022/02/27 02:47:21;;;;;;;;;;;;;;;;;;1039399;28;846;-45
2022/02/27 02:47:55;;;;;;;;;;;;;;;;;;1035644;28;1574;-43
2022/02/27 02:48:28;;;;;;;;;;;;;;;;;;1035343;28;1346;-44
2022/02/27 02:49:14;;;;;;;;;;;;;;;;;;1035167;28;1993;-48
2022/02/27 02:49:53;;;;;;;;;;;;;;;;;;1034556;28;2146;-44
2022/02/27 02:50:23;;;;;;;;;;;;;;;;;;1034017;28;1276;-43
2022/02/27 02:50:56;;;;;;;;;;;;;;;;;;1030451;28;1152;-47
2022/02/27 02:51:27;;;;;;;;;;;;;;;;;;1031702;28;1133;-45
2022/02/27 02:51:58;;;;;;;;;;;;;;;;;;1035311;28;898;-43
2022/02/27 02:52:28;;;;;;;;;;;;;;;;;;1035542;28;1307;-45
2022/02/27 02:52:58;;;;;;;;;;;;;;;;;;1035386;28;1612;-42
2022/02/27 02:53:36;;;;;;;;;;;;;;;;;;1035246;28;1232;-43
2022/02/27 02:54:07;;;;;;;;;;;;;;;;;;1035302;28;814;-44
2022/02/27 02:54:37;;;;;;;;;;;;;;;;;;1036232;28;993;-42
2022/02/27 02:55:09;;;;;;;;;;;;;;;;;;1039475;28;798;-43
2022/02/27 02:55:40;;;;;;;;;;;;;;;;;;1039617;28;1061;-45
2022/02/27 02:56:10;;;;;;;;;;;;;;;;;;1039442;28;1207;-43
2022/02/27 02:56:41;;;;;;;;;;;;;;;;;;1039674;28;949;-44
2022/02/27 02:57:11;;;;;;;;;;;;;;;;;;1039726;28;827;-45
2022/02/27 02:57:42;;;;;;;;;;;;;;;;;;1039544;28;999;-43
2022/02/27 02:58:12;;;;;;;;;;;;;;;;;;1039385;28;957;-42
2022/02/27 02:58:43;;;;;;;;;;;;;;;;;;1039355;28;818;-44
2022/02/27 02:59:13;;;;;;;;;;;;;;;;;;1039657;28;929;-43
2022/02/27 02:59:43;;;;;;;;;;;;;;;;;;1039714;28;881;-44
2022/02/27 03:00:14;;;;;;;;;;;;;;;;;;1039608;28;988;-47
2022/02/27 03:00:45;;;;;;;;;;;;;;;;;;1039750;28;944;-44
2022/02/27 03:01:16;;;;;;;;;;;;;;;;;;1039680;28;945;-43
2022/02/27 03:01:47;;;;;;;;;;;;;;;;;;1039633;28;976;-44
2022/02/27 03:02:17;;;;;;;;;;;;;;;;;;1039670;28;881;-43
2022/02/27 03:02:48;;;;;;;;;;;;;;;;;;1039618;28;826;-43
2022/02/27 03:03:19;;;;;;;;;;;;;;;;;;1039343;28;985;-42
2022/02/27 03:03:50;;;;;;;;;;;;;;;;;;1039421;28;1115;-42
2022/02/27 03:04:21;;;;;;;;;;;;;;;;;;1039220;28;922;-44
2022/02/27 03:04:51;;;;;;;;;;;;;;;;;;1039505;28;937;-42
2022/02/27 03:05:21;;;;;;;;;;;;;;;;;;1039489;28;778;-44
2022/02/27 03:05:52;;;;;;;;;;;;;;;;;;1039125;28;921;-45
2022/02/27 03:06:22;;;;;;;;;;;;;;;;;;1039620;28;949;-48
2022/02/27 03:06:53;;;;;;;;;;;;;;;;;;1039638;28;829;-47
2022/02/27 03:07:23;;;;;;;;;;;;;;;;;;1039704;28;934;-46
2022/02/27 03:07:53;;;;;;;;;;;;;;;;;;1039311;28;972;-47
2022/02/27 03:08:24;;;;;;;;;;;;;;;;;;1039237;28;949;-45
2022/02/27 03:08:54;;;;;;;;;;;;;;;;;;1039468;28;775;-46
2022/02/27 03:09:24;;;;;;;;;;;;;;;;;;1038376;28;1971;-47
2022/02/27 03:09:55;;;;;;;;;;;;;;;;;;1039749;28;877;-44
2022/02/27 03:10:25;;;;;;;;;;;;;;;;;;1039643;28;838;-45
2022/02/27 03:10:56;;;;;;;;;;;;;;;;;;1039662;28;902;-44
2022/02/27 03:11:26;;;;;;;;;;;;;;;;;;1039596;28;944;-46
2022/02/27 03:11:57;;;;;;;;;;;;;;;;;;1039744;28;909;-46
2022/02/27 03:12:27;;;;;;;;;;;;;;;;;;1039690;28;882;-48
2022/02/27 03:12:57;;;;;;;;;;;;;;;;;;1039579;28;814;-45
2022/02/27 03:13:28;;;;;;;;;;;;;;;;;;1038947;28;842;-43
2022/02/27 03:14:00;;;;;;;;;;;;;;;;;;1039854;28;799;-45
2022/02/27 03:14:31;;;;;;;;;;;;;;;;;;1039495;28;1087;-43
2022/02/27 03:15:02;;;;;;;;;;;;;;;;;;1039589;28;933;-43
2022/02/27 03:15:33;;;;;;;;;;;;;;;;;;1039729;28;890;-43
2022/02/27 03:16:03;;;;;;;;;;;;;;;;;;1039408;28;957;-42
2022/02/27 03:16:34;;;;;;;;;;;;;;;;;;1039794;28;866;-44
2022/02/27 03:17:04;;;;;;;;;;;;;;;;;;1039423;28;1152;-43
2022/02/27 03:17:34;;;;;;;;;;;;;;;;;;1039544;28;953;-42
2022/02/27 03:18:05;;;;;;;;;;;;;;;;;;1039741;28;822;-43
2022/02/27 03:18:35;;;;;;;;;;;;;;;;;;1039644;28;968;-45
2022/02/27 03:19:05;;;;;;;;;;;;;;;;;;1039491;28;929;-45
2022/02/27 03:19:36;;;;;;;;;;;;;;;;;;1039694;28;1057;-43
2022/02/27 03:20:06;;;;;;;;;;;;;;;;;;1039446;28;928;-44
2022/02/27 03:20:36;;;;;;;;;;;;;;;;;;1039006;28;1103;-44
2022/02/27 03:21:07;;;;;;;;;;;;;;;;;;1039515;28;933;-45
2022/02/27 03:21:38;;;;;;;;;;;;;;;;;;1039562;28;854;-43
2022/02/27 03:22:08;;;;;;;;;;;;;;;;;;1039641;28;878;-43
2022/02/27 03:22:38;;;;;;;;;;;;;;;;;;1039549;28;845;-46
2022/02/27 03:23:09;;;;;;;;;;;;;;;;;;1039724;28;818;-44
2022/02/27 03:23:39;;;;;;;;;;;;;;;;;;1039594;28;898;-45
2022/02/27 03:24:09;;;;;;;;;;;;;;;;;;1039579;28;890;-44
2022/02/27 03:24:40;;;;;;;;;;;;;;;;;;1039660;28;870;-47
2022/02/27 03:25:10;;;;;;;;;;;;;;;;;;1039503;28;882;-45
2022/02/27 03:25:40;;;;;;;;;;;;;;;;;;1039579;28;890;-45
2022/02/27 03:26:11;;;;;;;;;;;;;;;;;;1039640;28;889;-46
2022/02/27 03:26:42;;;;;;;;;;;;;;;;;;1039572;28;929;-46
2022/02/27 03:27:12;;;;;;;;;;;;;;;;;;1039709;28;897;-44
2022/02/27 03:27:42;;;;;;;;;;;;;;;;;;1039384;28;856;-45
2022/02/27 03:28:13;;;;;;;;;;;;;;;;;;1042701;28;1751;-44
2022/02/27 03:28:43;;;;;;;;;;;;;;;;;;1043496;28;814;-44
2022/02/27 03:29:14;;;;;;;;;;;;;;;;;;1043312;28;1977;-45
2022/02/27 03:29:44;;;;;;;;;;;;;;;;;;1043195;28;976;-43
2022/02/27 03:30:15;;;;;;;;;;;;;;;;;;1039659;28;869;-44
2022/02/27 03:30:45;;;;;;;;;;;;;;;;;;1039611;28;932;-44
2022/02/27 03:31:15;;;;;;;;;;;;;;;;;;1039669;28;937;-43
2022/02/27 03:31:46;;;;;;;;;;;;;;;;;;1039475;28;834;-42
2022/02/27 03:32:16;;;;;;;;;;;;;;;;;;1039649;28;877;-43
2022/02/27 03:32:46;;;;;;;;;;;;;;;;;;1039587;28;997;-46
2022/02/27 03:33:17;;;;;;;;;;;;;;;;;;1039538;28;890;-46
2022/02/27 03:33:48;;;;;;;;;;;;;;;;;;1039587;28;886;-44
2022/02/27 03:34:18;;;;;;;;;;;;;;;;;;1039599;28;874;-45
2022/02/27 03:34:48;;;;;;;;;;;;;;;;;;1039621;28;790;-42
2022/02/27 03:35:19;;;;;;;;;;;;;;;;;;1038860;28;964;-46
2022/02/27 03:35:50;;;;;;;;;;;;;;;;;;1039560;28;810;-44
2022/02/27 03:36:20;;;;;;;;;;;;;;;;;;1039548;28;892;-43
2022/02/27 03:36:50;;;;;;;;;;;;;;;;;;1043422;28;1025;-43
2022/02/27 03:37:21;;;;;;;;;;;;;;;;;;1043191;28;924;-44